Ashley, North Dakota
Current Conditions -  °F | °C
As of 1:55 AM on Saturday 25 Oct 2014 (Local Time) from K7L2 Reporting Station
Scattered Clouds Scattered Clouds  
Wind Chill: 41°   Ceiling: Unl
Heat Index: 45°   Visibility: 10mi
Dew Point: 32°   Wind: 6mph
Humidity: 61%   Direction: 270°W
Pressure: 30.07"   Gusts: NA
Location:  46.03°N, 99.37°W
Report Text: K7L2 250655Z AUTO 27005KT 10SM SCT120 07/00 A3007 RMK AO2 PWINO PNO
Loading
Personal Weather Stations






























Interactive Weather Map
Tropical Storm Tracking
New forecast layout! Learn more

10-Day Weather Forecast

Advertisements
Track Severe Weather on mobile